Latest Aviation Weather Report (METAR)

METAR VMMC 162100Z 18008KT 9999 -SHRA FEW010 SCT022 28/26 Q0999 NOSIG=

Decoded METAR in plain language
Contents of Report Code Information
Report Type METAR Aviation Routine Weather Report
Location VMMC Macao, China
Time of the Observation 162100Z 16/08/2018 21:00:00 UTC
Surface Wind Direction and Speed 18008KT mean direction 180 degrees, speed 8 knots
Visibility 9999 10 kilometres or more
Present Weather -SHRA light rain shower
Cloud FEW010 SCT022 amount 1-2 oktas; base 1000 feet
amount 3-4 oktas; base 2200 feet
Air Temperature and Dew-Point Temperature 28/26 air temperature 28°C
dew point temperature 26°C
Pressure (QNH) Q0999 999 hPa
Trend Forecasts During Next Two Hours NOSIG no significant changes

OTHER INTERNATIONAL AIRPORTS:
Weather Forecast (TAF)   Weather Report (METAR)